Aviation Digital Data Service (ADDS)

Output produced by METARs form (1728 UTC 06 March 2015)
found at http://www.aviationweather.gov/adds/metars/
 
METAR text: KCMI 061653Z 18017KT 10SM FEW100 M09/M13 A3044 RMK AO2 SLP327 T10891133
Conditions at: KCMI (CHAMPAIGN/URBANA, IL, US) observed 1653 UTC 06 March 2015
Temperature: -8.9°C (16°F)
Dewpoint: -13.3°C (8°F) [RH = 70%]
Pressure (altimeter): 30.44 inches Hg (1030.9 mb)
[Sea-level pressure: 1032.7 mb]
Winds: from the S (180 degrees) at 20 MPH (17 knots; 8.8 m/s)
Visibility: 10 or more miles (16+ km)
Ceiling: at least 12,000 feet AGL
Clouds: few clouds at 10000 feet AGL
Weather: no significant weather observed at this time

METAR text: KCMI 061553Z 18015KT 10SM CLR M11/M15 A3047 RMK AO2 SLP336 T11111150
Conditions at: KCMI (CHAMPAIGN/URBANA, IL, US) observed 1553 UTC 06 March 2015
Temperature: -11.1°C (12°F)
Dewpoint: -15.0°C (5°F) [RH = 73%]
Pressure (altimeter): 30.47 inches Hg (1031.9 mb)
[Sea-level pressure: 1033.6 mb]
Winds: from the S (180 degrees) at 17 MPH (15 knots; 7.8 m/s)
Visibility: 10 or more miles (16+ km)
Ceiling: at least 12,000 feet AGL
Clouds: sky clear below 12,000 feet AGL
Weather: no significant weather observed at this time

Forecast for: KCMI (CHAMPAIGN/URBANA, IL, US)
Text: KCMI 061133Z 0612/0712 18006KT P6SM SCT120
Forecast period: 1200 to 1600 UTC 06 March 2015
Forecast type: FROM: standard forecast or significant change
Winds: from the S (180 degrees) at 7 MPH (6 knots; 3.1 m/s)
Visibility: 6 or more miles (10+ km)
Clouds: scattered clouds at 12000 feet AGL
Weather: no significant weather forecast for this period
Text: FM061600 19016G22KT P6SM BKN100
Forecast period: 1600 UTC 06 March 2015 to 0000 UTC 07 March 2015
Forecast type: FROM: standard forecast or significant change
Winds: from the S (190 degrees) at 18 MPH (16 knots; 8.3 m/s)
gusting to 25 MPH (22 knots; 11.4 m/s)
Visibility: 6 or more miles (10+ km)
Ceiling: 10000 feet AGL
Clouds: broken clouds at 10000 feet AGL
Weather: no significant weather forecast for this period
Text: FM070000 21012KT P6SM SCT250
Forecast period: 0000 to 1200 UTC 07 March 2015
Forecast type: FROM: standard forecast or significant change
Winds: from the SSW (210 degrees) at 14 MPH (12 knots; 6.2 m/s)
Visibility: 6 or more miles (10+ km)
Clouds: scattered clouds at 25000 feet AGL
Weather: no significant weather forecast for this period